createdAt,value
2019-05-09T00:07:20.261Z,1.03
2019-05-09T00:17:23.357Z,1.00
2019-05-09T00:27:26.294Z,0.90
2019-05-09T00:37:47.920Z,0.80
2019-05-09T00:47:51.136Z,1.30
2019-05-09T00:57:54.100Z,0.90
2019-05-09T01:07:57.048Z,1.27
2019-05-09T01:18:01.019Z,1.50
2019-05-09T01:28:05.059Z,1.63
2019-05-09T01:38:08.008Z,1.33
2019-05-09T01:48:11.022Z,1.57
2019-05-09T01:58:13.973Z,1.50
2019-05-09T02:08:16.938Z,1.80
2019-05-09T02:18:26.410Z,1.80
2019-05-09T02:28:29.388Z,1.90
2019-05-09T02:38:32.383Z,1.70
2019-05-09T02:48:38.370Z,2.13
2019-05-09T02:58:58.842Z,2.30
2019-05-09T03:09:02.536Z,2.20
2019-05-09T03:19:08.792Z,2.33
2019-05-09T03:29:20.494Z,2.40
2019-05-09T03:39:23.478Z,2.50
2019-05-09T03:49:28.342Z,2.90
2019-05-09T03:59:31.426Z,3.70
2019-05-09T04:09:34.619Z,3.73
2019-05-09T04:19:38.033Z,4.60
2019-05-09T04:29:42.684Z,4.00
2019-05-09T04:39:47.666Z,4.27
2019-05-09T04:49:50.658Z,3.90
2019-05-09T04:59:53.689Z,3.93
2019-05-09T05:09:57.621Z,2.90
2019-05-09T05:20:02.054Z,2.93
2019-05-09T05:30:07.563Z,2.77
2019-05-09T05:40:10.974Z,2.33
2019-05-09T05:50:13.966Z,2.30
2019-05-09T06:00:20.416Z,2.60
2019-05-09T06:10:23.397Z,1.77
2019-05-09T06:20:28.083Z,1.90
2019-05-09T06:30:31.556Z,2.07
2019-05-09T06:40:34.925Z,1.50
2019-05-09T06:50:37.992Z,1.20
2019-05-09T07:00:50.990Z,0.90
2019-05-09T07:10:53.989Z,0.80
2019-05-09T07:20:57.663Z,0.80
2019-05-09T07:31:20.521Z,0.60
2019-05-09T07:41:23.552Z,0.90
2019-05-09T07:51:27.470Z,0.87
2019-05-09T08:01:30.647Z,1.27
2019-05-09T08:11:33.654Z,0.90
2019-05-09T08:21:38.318Z,0.90
2019-05-09T08:31:41.547Z,0.50
2019-05-09T08:41:44.538Z,0.50
2019-05-09T08:52:08.207Z,0.20
2019-05-09T09:02:12.226Z,0.30
2019-05-09T09:12:01.083Z,0.50
2019-05-09T09:22:05.162Z,0.60
2019-05-09T09:32:08.557Z,0.30
2019-05-09T09:42:11.635Z,0.40
2019-05-09T09:52:14.734Z,0.33
2019-05-09T10:02:21.530Z,0.37
2019-05-09T10:12:24.507Z,0.40
2019-05-09T10:22:27.677Z,0.50
2019-05-09T10:32:30.597Z,0.33
2019-05-09T10:42:40.486Z,0.30
2019-05-09T10:52:43.625Z,0.50
2019-05-09T11:02:48.363Z,0.37
2019-05-09T11:12:51.499Z,0.40
2019-05-09T11:22:54.588Z,0.30
